Weather History for KCUH - May, 2013

Change the Weather History Date:

Tuesday, May 21, 2013

  Actual Average (KTUL) Record (KTUL)
Temperature  
Mean Temperature 58 °F 71 °F  
Max Temperature 64 °F 81 °F 95 °F (1925)
Min Temperature 53 °F 61 °F 45 °F (1915)
Degree Days  
Heating Degree Days 6    
Cooling Degree Days 0 6  
Month to date cooling degree days 94  
Year to date cooling degree days 159  
Growing Degree Days 8 (Base 50)    
Moisture  
Dew Point 58 °F    
Average Humidity 95    
Maximum Humidity 100    
Minimum Humidity 82    
Precipitation  
Precipitation 0.23 in 0.21 in 1.90 in (1978)
Month to date precipitation 4.01  
Year to date precipitation 14.60  
Sea Level Pressure  
Sea Level Pressure 29.81 in    
Wind  
Wind Speed 4 mph (NW)    
Max Wind Speed 14 mph    
Max Gust Speed 18 mph    
Visibility 10 miles    
Events Rain    
T = Trace of Precipitation, MM = Missing Value Source: NWS Daily Summary

Daily Weather History Graph

Daily Weather History Graph

Search for Another Location

Airport or City:

Trip Planner

Search our weather history database for the weather conditions in past years. The results will help you decide how hot, cold, wet, or windy it might be!

Date:

Astronomy

May. 21, 2013 Rise Set
Actual Time 6:16 AM CDT 8:30 PM CDT
Civil Twilight 5:48 AM CDT 8:59 PM CDT
Nautical Twilight 5:12 AM CDT 9:35 PM CDT
Astronomical Twilight 4:34 AM CDT 10:14 PM CDT
Moon 4:52 PM CDT (5/21) 3:38 AM CDT (5/21)
Length of Visible Light 15h 11m
Length of Day
14h 13m
Waxing Gibbous, 84% of the Moon is Illuminated
May 21
Waxing Gibbous
May 24
Full
May 31
Last Quarter
Jun 8
New
Jun 16
First Quarter

Hourly Weather History & Observations

Time (CDT) Temp. Dew Point Humidity Pressure Visibility Wind Dir Wind Speed Gust Speed Precip Events Conditions
12:15 AM 64.4 °F 64.4 °F 100% 29.78 in 10.0 mi Calm Calm - N/A   Clear
12:35 AM 62.6 °F 62.6 °F 100% 29.78 in 10.0 mi Calm Calm - N/A   Clear
12:55 AM 62.6 °F 62.6 °F 100% 29.78 in 10.0 mi Calm Calm - N/A   Clear
1:15 AM 62.6 °F 62.6 °F 100% 29.78 in 10.0 mi Calm Calm - N/A   Clear
1:35 AM 64.4 °F 64.4 °F 100% 29.77 in 10.0 mi Calm Calm - N/A   Clear
1:55 AM 64.4 °F 64.4 °F 100% 29.75 in 7.0 mi West 3.5 mph - N/A   Clear
2:15 AM 64.4 °F 64.4 °F 100% 29.77 in 7.0 mi South 4.6 mph - N/A   Clear
2:35 AM 64.4 °F 64.4 °F 100% 29.77 in 7.0 mi Calm Calm - N/A   Clear
2:55 AM 62.6 °F 62.6 °F 100% 29.78 in 7.0 mi Calm Calm - N/A   Clear
3:15 AM 62.6 °F 62.6 °F 100% 29.78 in 10.0 mi SSW 3.5 mph - N/A   Clear
3:35 AM 62.6 °F 62.6 °F 100% 29.78 in 7.0 mi NW 6.9 mph - N/A   Scattered Clouds
3:55 AM 62.6 °F 62.6 °F 100% 29.77 in 10.0 mi NNW 8.1 mph - N/A   Scattered Clouds
4:15 AM 62.6 °F 62.6 °F 100% 29.77 in 10.0 mi North 9.2 mph - N/A   Clear
4:35 AM 62.6 °F 60.8 °F 94% 29.78 in 10.0 mi NNW 9.2 mph - N/A   Clear
4:55 AM 62.6 °F 59.0 °F 88% 29.79 in 10.0 mi North 8.1 mph - N/A   Clear
5:15 AM 62.6 °F 57.2 °F 82% 29.80 in 10.0 mi North 3.5 mph - N/A   Clear
5:35 AM 60.8 °F 57.2 °F 88% 29.81 in 10.0 mi North 4.6 mph - N/A   Clear
5:55 AM 60.8 °F 57.2 °F 88% 29.81 in 10.0 mi North 4.6 mph - N/A   Clear
6:15 AM 60.8 °F 55.4 °F 82% 29.83 in 10.0 mi Calm Calm - N/A   Scattered Clouds
6:35 AM 60.8 °F 57.2 °F 88% 29.82 in 10.0 mi NNW 5.8 mph - N/A   Scattered Clouds
6:55 AM 60.8 °F 57.2 °F 88% 29.82 in 10.0 mi North 3.5 mph - N/A   Clear
7:15 AM 59.0 °F 57.2 °F 94% 29.82 in 10.0 mi NNE 3.5 mph - N/A Rain Light Rain
7:35 AM 59.0 °F 55.4 °F 88% 29.76 in 10.0 mi NE 13.8 mph - N/A Rain Light Rain
7:55 AM 59.0 °F 55.4 °F 88% 29.81 in 10.0 mi North 5.8 mph 9.2 mph N/A   Scattered Clouds
8:15 AM 59.0 °F 55.4 °F 88% 29.82 in 10.0 mi NW 3.5 mph - N/A   Scattered Clouds
8:35 AM 59.0 °F 55.4 °F 88% 29.83 in 10.0 mi NNW 5.8 mph - N/A   Mostly Cloudy
8:55 AM 59.0 °F 55.4 °F 88% 29.84 in 10.0 mi North 3.5 mph - N/A   Scattered Clouds
9:15 AM 59.0 °F 55.4 °F 88% 29.84 in 10.0 mi NNW 3.5 mph - N/A   Clear
9:35 AM 59.0 °F 55.4 °F 88% 29.86 in 10.0 mi NW 3.5 mph - N/A   Scattered Clouds
9:55 AM 59.0 °F 55.4 °F 88% 29.87 in 10.0 mi Calm Calm - N/A   Scattered Clouds
10:15 AM 59.0 °F 55.4 °F 88% 29.90 in 10.0 mi Calm Calm - N/A   Mostly Cloudy
10:35 AM 57.2 °F 55.4 °F 94% 29.89 in 7.0 mi ENE 3.5 mph 10.4 mph 0.02 in Rain Rain
10:55 AM 57.2 °F 55.4 °F 94% 29.89 in 10.0 mi North 4.6 mph - 0.03 in Rain Light Rain
11:15 AM 55.4 °F 55.4 °F 100% 29.86 in 10.0 mi Calm Calm - 0.01 in Rain Rain
11:35 AM 55.4 °F 55.4 °F 100% 29.83 in 10.0 mi North 9.2 mph - 0.03 in Rain Light Rain
11:55 AM 57.2 °F 57.2 °F 100% 29.78 in 10.0 mi NE 8.1 mph - 0.03 in Rain Light Rain
12:15 PM 59.0 °F 59.0 °F 100% 29.81 in 10.0 mi North 8.1 mph - N/A   Clear
12:35 PM 62.6 °F 59.0 °F 88% 29.83 in 10.0 mi East 3.5 mph - N/A   Clear
12:55 PM 60.8 °F 59.0 °F 94% 29.85 in 10.0 mi NNW 8.1 mph - N/A Rain Light Rain
1:15 PM 59.0 °F 57.2 °F 94% 29.96 in 7.0 mi West 13.8 mph - 0.02 in Rain Heavy Rain
1:35 PM 57.2 °F 57.2 °F 100% 29.98 in 7.0 mi West 12.7 mph - 0.04 in Rain Rain
1:55 PM 57.2 °F 57.2 °F 100% 29.96 in 7.0 mi West 10.4 mph - 0.10 in Rain Heavy Rain
2:15 PM 55.4 °F 55.4 °F 100% 29.88 in 7.0 mi ENE 3.5 mph - 0.03 in Rain Rain
2:35 PM 55.4 °F 55.4 °F 100% 29.83 in 7.0 mi ESE 4.6 mph - 0.06 in Rain Rain
2:55 PM 55.4 °F 55.4 °F 100% 29.77 in 10.0 mi ESE 6.9 mph - 0.07 in Rain Light Rain
3:15 PM 55.4 °F 55.4 °F 100% 29.79 in 10.0 mi Calm Calm - N/A   Clear
3:35 PM 55.4 °F 55.4 °F 100% 29.80 in 10.0 mi SSW 3.5 mph - N/A   Clear
3:55 PM 55.4 °F 55.4 °F 100% 29.79 in 10.0 mi Calm Calm - N/A   Clear
4:15 PM 57.2 °F 57.2 °F 100% 29.79 in 10.0 mi WNW 6.9 mph - N/A   Clear
4:35 PM 57.2 °F 57.2 °F 100% 29.77 in 10.0 mi WNW 6.9 mph - N/A   Clear
4:55 PM 59.0 °F 59.0 °F 100% 29.77 in 10.0 mi WNW 13.8 mph 18.4 mph N/A   Clear
5:15 PM 59.0 °F 59.0 °F 100% 29.78 in 10.0 mi WNW 13.8 mph - N/A   Clear
5:35 PM 60.8 °F 59.0 °F 94% 29.78 in 10.0 mi WNW 6.9 mph - N/A   Clear
5:55 PM 60.8 °F 59.0 °F 94% 29.77 in 10.0 mi NW 6.9 mph - N/A   Clear
6:15 PM 62.6 °F 60.8 °F 94% 29.77 in 10.0 mi NW 8.1 mph - N/A   Clear
6:35 PM 64.4 °F 60.8 °F 88% 29.79 in 10.0 mi WNW 8.1 mph - N/A   Clear
6:55 PM 64.4 °F 60.8 °F 88% 29.78 in 10.0 mi WNW 9.2 mph - N/A   Clear
7:15 PM 64.4 °F 60.8 °F 88% 29.79 in 10.0 mi WNW 6.9 mph - N/A   Clear
7:35 PM 64.4 °F 60.8 °F 88% 29.80 in 10.0 mi West 5.8 mph - N/A   Clear
7:55 PM 64.4 °F 60.8 °F 88% 29.80 in 10.0 mi West 3.5 mph - N/A   Clear
8:15 PM 62.6 °F 59.0 °F 88% 29.81 in 10.0 mi SW 3.5 mph - N/A   Clear
8:35 PM 60.8 °F 59.0 °F 94% 29.82 in 10.0 mi SW 3.5 mph - N/A   Clear
8:55 PM 60.8 °F 59.0 °F 94% 29.82 in 10.0 mi Calm Calm - N/A   Clear
9:15 PM 60.8 °F 59.0 °F 94% 29.82 in 10.0 mi South 3.5 mph - N/A   Clear
9:35 PM 59.0 °F 59.0 °F 100% 29.83 in 10.0 mi Calm Calm - N/A   Clear
9:55 PM 59.0 °F 59.0 °F 100% 29.82 in 10.0 mi SW 3.5 mph - N/A   Clear
10:15 PM 57.2 °F 57.2 °F 100% 29.82 in 10.0 mi Calm Calm - N/A   Clear
10:35 PM 57.2 °F 57.2 °F 100% 29.83 in 10.0 mi Calm Calm - N/A   Clear
10:55 PM 55.4 °F 55.4 °F 100% 29.83 in 10.0 mi Calm Calm - N/A   Clear
11:15 PM 55.4 °F 55.4 °F 100% 29.83 in 10.0 mi Calm Calm - N/A   Clear
11:35 PM 53.6 °F 53.6 °F 100% 29.83 in 10.0 mi Calm Calm - N/A   Clear
11:55 PM 53.6 °F 53.6 °F 100% 29.83 in 10.0 mi Calm Calm - N/A   Clear